Terminal Aerodrome Forecast
Issued by NWS

Home | Current Version | Previous Version | Graphics & Text | Print | Product List | Glossary On
Versions: 1 2 3 4 5 6 7 8 9 10 11 12 13
000
FTUS45 KGGW 201723
TAFGDV
TAF
KGDV 201723Z 2018/2118 29022G30KT P6SM BKN120
     FM210000 33013G25KT P6SM BKN100
     FM211400 32007KT P6SM FEW250=

USA.gov is the U.S. government's official web portal to all federal, state and local government web resources and services.